Time;durP1;ratioP1;P1;durP2;ratioP2;P2;SDS_P1;SDS_P2;PMS_P1;PMS_P2;Temp;Humidity;BMP_temperature;BMP_pressure;BME280_temperature;BME280_humidity;BME280_pressure;Samples;Min_cycle;Max_cycle;Signal;HPM_P1;HPM_P2
2021/07/16 00:01:42;;;;;;;5.80;5.30;;;15.80;99.90;;;;;;4966746;28;20744;-88
2021/07/16 00:04:09;;;;;;;6.43;5.87;;;15.90;99.90;;;;;;4974499;28;20628;-88
2021/07/16 00:06:38;;;;;;;6.60;6.00;;;15.90;99.90;;;;;;4971847;28;21051;-88
2021/07/16 00:09:06;;;;;;;6.17;5.57;;;15.90;99.90;;;;;;4980052;28;20632;-90
2021/07/16 00:11:35;;;;;;;6.03;5.57;;;15.90;99.90;;;;;;4982031;28;20672;-90
2021/07/16 00:14:02;;;;;;;7.40;6.70;;;15.90;99.90;;;;;;4976837;28;20622;-88
2021/07/16 00:16:30;;;;;;;11.53;10.37;;;15.90;99.90;;;;;;4971599;28;21149;-88
2021/07/16 00:18:57;;;;;;;10.07;9.27;;;15.90;99.90;;;;;;4980165;28;20635;-88
2021/07/16 00:21:25;;;;;;;12.03;10.77;;;15.80;99.90;;;;;;4986463;28;20643;-89
2021/07/16 00:23:51;;;;;;;12.40;11.40;;;15.80;99.90;;;;;;4981109;28;20594;-89
2021/07/16 00:26:20;;;;;;;13.03;11.93;;;15.90;99.90;;;;;;4987896;28;20629;-89
2021/07/16 00:28:47;;;;;;;14.40;10.80;;;15.80;99.90;;;;;;4979997;28;20629;-88
2021/07/16 00:31:13;;;;;;;11.27;10.27;;;15.80;99.90;;;;;;4981968;28;20660;-89
2021/07/16 00:33:42;;;;;;;12.47;11.37;;;15.80;99.90;;;;;;4973685;28;20681;-89
2021/07/16 00:36:09;;;;;;;11.23;10.17;;;15.70;99.90;;;;;;4976962;28;20630;-89
2021/07/16 00:38:37;;;;;;;11.97;10.97;;;15.70;99.90;;;;;;4972802;28;20667;-88
2021/07/16 00:41:05;;;;;;;10.47;9.67;;;15.70;99.90;;;;;;4979373;28;20666;-88
2021/07/16 00:43:32;;;;;;;10.93;9.93;;;15.60;99.90;;;;;;4976934;28;20648;-88
2021/07/16 00:45:58;;;;;;;11.23;10.10;;;15.60;99.90;;;;;;4968416;28;20609;-90
2021/07/16 00:48:25;;;;;;;11.67;10.47;;;15.60;99.90;;;;;;4972001;28;20617;-89
2021/07/16 00:50:53;;;;;;;11.67;10.37;;;15.60;99.90;;;;;;4971361;28;21021;-89
2021/07/16 00:53:22;;;;;;;10.70;9.90;;;15.60;99.90;;;;;;4975981;28;20692;-89
2021/07/16 00:55:49;;;;;;;11.33;10.10;;;15.50;99.90;;;;;;4973763;28;21157;-88
2021/07/16 00:58:17;;;;;;;11.23;10.43;;;15.40;99.90;;;;;;4975929;28;20644;-89
2021/07/16 01:00:44;;;;;;;11.20;10.20;;;15.40;99.90;;;;;;4973398;28;20656;-89
2021/07/16 01:03:11;;;;;;;14.00;10.67;;;15.50;99.90;;;;;;4974962;28;20719;-89
2021/07/16 01:05:38;;;;;;;11.50;10.47;;;15.50;99.90;;;;;;4973731;28;20626;-88
2021/07/16 01:08:07;;;;;;;14.90;10.87;;;15.40;99.90;;;;;;4970734;28;20974;-88
2021/07/16 01:10:34;;;;;;;10.40;9.50;;;15.50;99.90;;;;;;4965751;28;20665;-87
2021/07/16 01:13:01;;;;;;;11.17;10.23;;;15.50;99.90;;;;;;4971396;28;20678;-87
2021/07/16 01:15:32;;;;;;;11.70;10.80;;;15.60;99.90;;;;;;4970105;28;20640;-90
2021/07/16 01:17:59;;;;;;;9.70;9.00;;;15.60;99.90;;;;;;4972039;28;20763;-87
2021/07/16 01:20:28;;;;;;;10.93;9.90;;;15.70;99.90;;;;;;4976239;28;20657;-87
2021/07/16 01:22:55;;;;;;;10.57;9.73;;;15.70;99.90;;;;;;4972383;28;20633;-88
2021/07/16 01:25:27;;;;;;;11.80;10.53;;;15.70;99.90;;;;;;4977038;28;20617;-87
2021/07/16 01:27:56;;;;;;;11.57;10.67;;;15.70;99.90;;;;;;4971683;28;20627;-88
2021/07/16 01:30:25;;;;;;;10.87;9.97;;;15.70;99.90;;;;;;4980654;28;20744;-88
2021/07/16 01:32:53;;;;;;;11.33;10.40;;;15.70;99.90;;;;;;4972546;28;20672;-88
2021/07/16 01:35:20;;;;;;;12.10;11.03;;;15.80;99.90;;;;;;4975179;28;20624;-89
2021/07/16 01:37:47;;;;;;;11.97;10.97;;;15.80;99.90;;;;;;4974969;28;20617;-88
2021/07/16 01:40:15;;;;;;;12.10;11.03;;;15.80;99.90;;;;;;4969807;28;20748;-88
2021/07/16 01:42:46;;;;;;;10.67;9.90;;;15.80;99.90;;;;;;4970251;28;20655;-88
2021/07/16 01:45:15;;;;;;;12.30;11.00;;;15.80;99.90;;;;;;4968863;28;20684;-88
2021/07/16 01:47:46;;;;;;;11.10;10.20;;;15.90;99.90;;;;;;4968426;28;21439;-88
2021/07/16 01:50:13;;;;;;;12.23;11.23;;;15.90;99.90;;;;;;4971063;28;20684;-88
2021/07/16 01:52:41;;;;;;;11.97;10.90;;;16.00;99.90;;;;;;4968696;28;20673;-88
2021/07/16 01:55:09;;;;;;;11.23;10.07;;;16.00;99.90;;;;;;4968052;28;21236;-88
2021/07/16 01:57:36;;;;;;;13.30;10.80;;;16.10;99.90;;;;;;4969662;28;20629;-88
2021/07/16 02:00:09;;;;;;;10.57;9.50;;;16.00;99.90;;;;;;4972228;28;21066;-88
2021/07/16 02:02:36;;;;;;;11.87;10.50;;;16.10;99.90;;;;;;4968136;28;20634;-87
2021/07/16 02:05:05;;;;;;;12.30;11.20;;;16.00;99.90;;;;;;4970359;28;20661;-88
2021/07/16 02:07:33;;;;;;;12.73;11.77;;;16.10;99.90;;;;;;4972061;28;20629;-88
2021/07/16 02:10:00;;;;;;;14.13;13.00;;;16.10;99.90;;;;;;4973689;28;20648;-89
2021/07/16 02:12:27;;;;;;;11.87;11.07;;;16.10;99.90;;;;;;4976860;28;20664;-90
2021/07/16 02:14:54;;;;;;;12.67;11.70;;;16.10;99.90;;;;;;4972729;28;20660;-89
2021/07/16 02:17:24;;;;;;;13.03;11.77;;;16.10;99.90;;;;;;4975906;28;20636;-89
2021/07/16 02:19:51;;;;;;;11.30;10.23;;;16.10;99.90;;;;;;4974107;28;20679;-89
2021/07/16 02:22:18;;;;;;;11.43;10.43;;;16.10;99.90;;;;;;4977694;28;20616;-89
2021/07/16 02:24:47;;;;;;;14.47;13.00;;;16.10;99.90;;;;;;4975469;28;20621;-90
2021/07/16 02:27:14;;;;;;;10.50;9.23;;;16.20;99.90;;;;;;4974440;28;21235;-89
2021/07/16 02:29:41;;;;;;;11.67;10.50;;;16.20;99.90;;;;;;4972593;28;20634;-88
2021/07/16 02:32:08;;;;;;;12.77;11.60;;;16.20;99.90;;;;;;4975674;28;20633;-88
2021/07/16 02:34:36;;;;;;;13.97;12.87;;;16.20;99.90;;;;;;4971345;28;20639;-88
2021/07/16 02:37:03;;;;;;;15.40;14.20;;;16.20;99.90;;;;;;4972669;28;20629;-89
2021/07/16 02:39:30;;;;;;;16.90;15.40;;;16.30;99.90;;;;;;4980906;28;21704;-89
2021/07/16 02:44:40;;;;;;;19.53;17.63;;;16.40;99.90;;;;;;4972200;28;21161;-89
2021/07/16 02:47:07;;;;;;;17.20;15.73;;;16.40;99.90;;;;;;4973435;28;20630;-89
2021/07/16 02:49:35;;;;;;;17.10;15.70;;;16.40;99.90;;;;;;4967844;28;20676;-88
2021/07/16 02:52:02;;;;;;;17.07;15.43;;;16.30;99.90;;;;;;4981936;28;20624;-88
2021/07/16 02:54:29;;;;;;;20.27;14.97;;;16.30;99.90;;;;;;4981917;28;20617;-89
2021/07/16 02:56:56;;;;;;;16.13;14.73;;;16.30;99.90;;;;;;4977983;28;20656;-88
2021/07/16 02:59:25;;;;;;;14.90;13.30;;;16.30;99.90;;;;;;4971098;28;21543;-88
2021/07/16 03:01:55;;;;;;;17.20;15.67;;;16.30;99.90;;;;;;4975131;28;20586;-89
2021/07/16 03:04:22;;;;;;;17.87;16.17;;;16.50;99.90;;;;;;4975786;28;20621;-89
2021/07/16 03:06:50;;;;;;;16.60;15.20;;;16.40;99.90;;;;;;4973165;28;20993;-89
2021/07/16 03:09:17;;;;;;;17.20;15.90;;;16.40;99.90;;;;;;4976703;28;20633;-89
2021/07/16 03:11:45;;;;;;;16.30;14.90;;;16.30;99.90;;;;;;4974647;28;20630;-89
2021/07/16 03:14:12;;;;;;;15.60;14.30;;;16.30;99.90;;;;;;4983455;28;20744;-89
2021/07/16 03:16:39;;;;;;;17.70;16.07;;;16.30;99.90;;;;;;4981514;28;21170;-89
2021/07/16 03:19:06;;;;;;;16.13;14.50;;;16.20;99.90;;;;;;4975402;28;20652;-89
2021/07/16 03:21:34;;;;;;;15.37;14.17;;;16.20;99.90;;;;;;4976238;28;20665;-90
2021/07/16 03:24:03;;;;;;;16.03;14.63;;;16.20;99.90;;;;;;4975099;28;20934;-88
2021/07/16 03:26:30;;;;;;;15.10;13.90;;;16.20;99.90;;;;;;4976757;28;20625;-89
2021/07/16 03:28:57;;;;;;;15.07;13.77;;;16.20;99.90;;;;;;4970539;28;21000;-90
2021/07/16 03:31:24;;;;;;;15.80;14.30;;;16.20;99.90;;;;;;4961243;28;20647;-89
2021/07/16 03:33:51;;;;;;;14.30;13.10;;;16.20;99.90;;;;;;4969586;28;20676;-89
2021/07/16 03:36:18;;;;;;;14.80;13.50;;;16.10;99.90;;;;;;4971068;28;20983;-89
2021/07/16 03:38:46;;;;;;;15.53;13.80;;;16.10;99.90;;;;;;4964136;28;20633;-89
2021/07/16 03:41:15;;;;;;;13.73;12.53;;;16.10;99.90;;;;;;4966807;28;20645;-89
2021/07/16 03:43:42;;;;;;;9.90;9.10;;;16.10;99.90;;;;;;4978759;28;20613;-89
2021/07/16 03:46:09;;;;;;;10.57;9.27;;;16.10;99.90;;;;;;4969436;28;21446;-88
2021/07/16 03:48:36;;;;;;;11.70;8.70;;;16.10;99.90;;;;;;4968404;28;21084;-90
2021/07/16 03:51:03;;;;;;;9.80;9.00;;;16.10;99.90;;;;;;4974080;28;20649;-90
2021/07/16 03:53:30;;;;;;;11.10;10.30;;;16.00;99.90;;;;;;4972716;28;20652;-90
2021/07/16 03:55:57;;;;;;;11.57;10.67;;;16.10;99.90;;;;;;4969841;28;21420;-89
2021/07/16 03:58:25;;;;;;;8.60;7.80;;;16.20;99.90;;;;;;4971505;28;20979;-89
2021/07/16 04:00:52;;;;;;;11.30;10.40;;;16.10;99.90;;;;;;4971803;28;20665;-89
2021/07/16 04:03:21;;;;;;;9.83;9.13;;;16.20;99.90;;;;;;4968321;28;20665;-90
2021/07/16 04:05:49;;;;;;;9.50;8.80;;;16.20;99.90;;;;;;4969702;28;20642;-89
2021/07/16 04:08:18;;;;;;;10.93;8.93;;;16.10;99.90;;;;;;4974353;28;20622;-90
2021/07/16 04:10:45;;;;;;;10.07;9.33;;;16.10;99.90;;;;;;4967562;28;20763;-89
2021/07/16 04:13:14;;;;;;;11.80;10.80;;;16.10;99.90;;;;;;4969494;28;20753;-90
2021/07/16 04:15:43;;;;;;;9.40;8.50;;;16.20;99.90;;;;;;4967458;28;20647;-90
2021/07/16 04:18:15;;;;;;;8.87;8.27;;;16.20;99.90;;;;;;4972091;28;21411;-91
2021/07/16 04:20:43;;;;;;;7.43;6.80;;;16.20;99.90;;;;;;4972029;28;20676;-89
2021/07/16 04:23:10;;;;;;;8.77;8.07;;;16.30;99.90;;;;;;4971158;28;20630;-89
2021/07/16 04:25:37;;;;;;;8.07;7.40;;;16.30;99.90;;;;;;4971683;28;20648;-89
2021/07/16 04:28:04;;;;;;;8.57;7.73;;;16.30;99.90;;;;;;4975255;28;20639;-88
2021/07/16 04:30:32;;;;;;;7.03;6.43;;;16.30;99.90;;;;;;4964952;28;20684;-89
2021/07/16 04:33:02;;;;;;;6.60;6.10;;;16.30;99.90;;;;;;4969081;28;20666;-89
2021/07/16 04:35:30;;;;;;;8.57;7.80;;;16.30;99.90;;;;;;4969255;28;20629;-88
2021/07/16 04:37:57;;;;;;;8.30;7.50;;;16.30;99.90;;;;;;4968754;28;20622;-89
2021/07/16 04:40:27;;;;;;;8.00;7.30;;;16.30;99.90;;;;;;4968399;28;21705;-89
2021/07/16 04:42:55;;;;;;;8.47;7.57;;;16.20;99.90;;;;;;4965680;28;21591;-89
2021/07/16 04:45:24;;;;;;;8.30;7.60;;;16.20;99.90;;;;;;4965326;28;20627;-88
2021/07/16 04:47:50;;;;;;;9.10;8.40;;;16.20;99.90;;;;;;4967704;28;20718;-89
2021/07/16 04:50:20;;;;;;;9.33;8.60;;;16.20;99.90;;;;;;4971792;28;20730;-89
2021/07/16 04:52:48;;;;;;;10.90;10.00;;;16.20;99.90;;;;;;4972404;28;20633;-89
2021/07/16 04:55:19;;;;;;;10.20;9.40;;;16.20;99.90;;;;;;4974533;28;20631;-88
2021/07/16 04:57:46;;;;;;;11.00;10.03;;;16.20;99.90;;;;;;4976263;28;20622;-89
2021/07/16 05:00:14;;;;;;;11.37;10.27;;;16.30;99.90;;;;;;4974811;28;20666;-88
2021/07/16 05:02:42;;;;;;;11.87;10.73;;;16.30;99.90;;;;;;4963482;28;20685;-90
2021/07/16 05:05:10;;;;;;;11.77;10.87;;;16.30;99.90;;;;;;4966673;28;20744;-90
2021/07/16 05:07:39;;;;;;;11.40;10.00;;;16.40;99.90;;;;;;4968078;28;20617;-90
2021/07/16 05:10:11;;;;;;;12.30;11.20;;;16.50;99.90;;;;;;4967384;28;20712;-90
2021/07/16 05:12:40;;;;;;;11.00;10.20;;;16.60;99.90;;;;;;4967149;28;20710;-90
2021/07/16 05:15:09;;;;;;;11.83;10.93;;;16.60;99.90;;;;;;4964687;28;20661;-90
2021/07/16 05:17:36;;;;;;;11.70;10.90;;;16.70;99.90;;;;;;4964098;28;20621;-90
2021/07/16 05:20:06;;;;;;;10.80;9.70;;;16.70;99.90;;;;;;4963688;28;21227;-89
2021/07/16 05:22:33;;;;;;;12.07;10.70;;;16.60;99.90;;;;;;4968262;28;20629;-89
2021/07/16 05:25:01;;;;;;;12.47;11.33;;;16.50;99.90;;;;;;4968617;28;20632;-89
2021/07/16 05:27:28;;;;;;;12.50;11.40;;;16.50;99.90;;;;;;4968105;28;20913;-89
2021/07/16 05:29:56;;;;;;;11.80;10.70;;;16.50;99.90;;;;;;4967564;28;20654;-91
2021/07/16 05:32:24;;;;;;;11.10;10.13;;;16.40;99.90;;;;;;4964359;28;20643;-90
2021/07/16 05:34:51;;;;;;;10.70;9.80;;;16.50;99.90;;;;;;4966486;28;20772;-89
2021/07/16 05:37:18;;;;;;;13.63;12.53;;;16.50;99.90;;;;;;4970147;28;20634;-90
2021/07/16 05:39:44;;;;;;;13.53;12.40;;;16.60;99.90;;;;;;4968682;28;20797;-91
2021/07/16 05:42:13;;;;;;;12.90;11.90;;;16.70;99.90;;;;;;4969919;28;20643;-90
2021/07/16 05:44:40;;;;;;;12.30;11.40;;;16.70;99.90;;;;;;4966557;28;20616;-90
2021/07/16 05:47:07;;;;;;;10.27;9.30;;;16.90;99.90;;;;;;4967428;28;20657;-90
2021/07/16 05:49:34;;;;;;;12.30;11.37;;;16.90;99.90;;;;;;4973490;28;20664;-91
2021/07/16 05:52:01;;;;;;;13.00;12.00;;;16.90;99.90;;;;;;4966134;28;20972;-91
2021/07/16 05:54:28;;;;;;;10.63;9.73;;;17.00;99.90;;;;;;4963941;28;20670;-90
2021/07/16 05:56:58;;;;;;;14.00;12.80;;;17.10;99.90;;;;;;4972706;28;20760;-91
2021/07/16 05:59:26;;;;;;;12.60;11.60;;;17.10;99.90;;;;;;4968736;28;20586;-91
2021/07/16 06:01:53;;;;;;;10.77;9.70;;;17.10;99.90;;;;;;4970316;28;21152;-90
2021/07/16 06:04:21;;;;;;;10.70;9.70;;;17.10;99.90;;;;;;4978125;28;20625;-91
2021/07/16 06:06:49;;;;;;;12.73;11.60;;;17.10;99.90;;;;;;4975548;28;21015;-92
2021/07/16 06:09:15;;;;;;;11.47;10.50;;;17.10;99.90;;;;;;4977135;28;20644;-90
2021/07/16 06:11:42;;;;;;;11.73;10.73;;;17.00;99.90;;;;;;4969807;28;20636;-90
2021/07/16 06:14:09;;;;;;;12.40;11.20;;;17.00;99.90;;;;;;4970255;28;20670;-90
2021/07/16 06:16:40;;;;;;;13.93;12.10;;;17.10;99.90;;;;;;4976175;28;20659;-90
2021/07/16 06:19:08;;;;;;;14.37;12.17;;;17.10;99.90;;;;;;4971093;28;20971;-91
2021/07/16 06:21:35;;;;;;;12.03;10.93;;;17.20;99.90;;;;;;4965864;28;20637;-90
2021/07/16 06:24:04;;;;;;;12.70;11.57;;;17.30;99.90;;;;;;4972577;28;20637;-91
2021/07/16 06:26:31;;;;;;;12.03;10.93;;;17.50;99.90;;;;;;4973760;28;21197;-90
2021/07/16 06:28:58;;;;;;;12.20;11.00;;;17.70;99.90;;;;;;4970127;28;21372;-89
2021/07/16 06:31:25;;;;;;;11.07;10.07;;;18.00;99.90;;;;;;4977945;28;20660;-90
2021/07/16 06:33:54;;;;;;;11.83;10.80;;;18.30;99.90;;;;;;4976077;28;20630;-89
2021/07/16 06:36:20;;;;;;;12.10;11.00;;;18.30;99.90;;;;;;4965082;28;20637;-88
2021/07/16 06:38:47;;;;;;;11.87;10.77;;;18.30;99.90;;;;;;4962876;28;21275;-89
2021/07/16 06:41:14;;;;;;;11.63;10.63;;;18.30;99.90;;;;;;4967169;28;20621;-88
2021/07/16 06:43:41;;;;;;;13.63;12.50;;;18.30;99.90;;;;;;4972499;28;21187;-88
2021/07/16 06:46:09;;;;;;;14.00;12.90;;;18.20;99.90;;;;;;4967602;28;20626;-88
2021/07/16 06:48:36;;;;;;;11.27;10.27;;;18.20;99.90;;;;;;4971307;28;21262;-89
2021/07/16 06:51:04;;;;;;;11.80;10.73;;;18.20;99.90;;;;;;4970718;28;20663;-89
2021/07/16 06:53:31;;;;;;;11.87;10.83;;;18.30;99.90;;;;;;4982969;28;20629;-89
2021/07/16 06:55:59;;;;;;;12.80;11.60;;;18.30;99.90;;;;;;4977441;28;20978;-89
2021/07/16 06:58:25;;;;;;;12.37;11.33;;;18.30;99.90;;;;;;4970869;28;20640;-89
2021/07/16 07:00:52;;;;;;;11.77;10.67;;;18.40;99.90;;;;;;4970577;28;20661;-89
2021/07/16 07:03:19;;;;;;;13.33;12.33;;;18.30;99.90;;;;;;4969666;28;20721;-89
2021/07/16 07:05:46;;;;;;;12.97;11.97;;;18.60;99.90;;;;;;4970571;28;20625;-88
2021/07/16 07:08:14;;;;;;;12.20;11.20;;;18.70;99.90;;;;;;4976888;28;20673;-89
2021/07/16 07:10:41;;;;;;;13.70;12.50;;;18.90;99.90;;;;;;4971770;28;20659;-89
2021/07/16 07:13:09;;;;;;;14.20;12.30;;;19.00;99.90;;;;;;4975419;28;20735;-87
2021/07/16 07:15:36;;;;;;;13.73;12.43;;;19.20;99.90;;;;;;4974700;28;20701;-89
2021/07/16 07:18:04;;;;;;;12.97;11.87;;;19.80;99.90;;;;;;4970625;28;20638;-90
2021/07/16 07:20:36;;;;;;;11.93;11.03;;;19.90;99.90;;;;;;4968677;28;21358;-89
2021/07/16 07:23:05;;;;;;;9.83;9.00;;;20.20;99.90;;;;;;4973619;28;20940;-89
2021/07/16 07:25:34;;;;;;;10.63;9.83;;;20.10;99.90;;;;;;4972519;28;20608;-90
2021/07/16 07:28:01;;;;;;;9.57;8.77;;;20.10;99.90;;;;;;4970129;28;20632;-89
2021/07/16 07:30:27;;;;;;;9.50;8.77;;;20.00;99.90;;;;;;4971613;28;20694;-89
2021/07/16 07:32:54;;;;;;;8.57;7.87;;;20.10;99.90;;;;;;4968017;28;21070;-89
2021/07/16 07:35:22;;;;;;;9.40;8.53;;;20.10;99.90;;;;;;4969525;28;21212;-89
2021/07/16 07:37:49;;;;;;;9.00;8.30;;;20.10;99.90;;;;;;4973474;28;20625;-89
2021/07/16 07:40:17;;;;;;;8.43;7.83;;;20.20;99.90;;;;;;4964377;28;21219;-89
2021/07/16 07:42:46;;;;;;;8.93;8.23;;;20.30;99.90;;;;;;4970392;28;21103;-90
2021/07/16 07:45:14;;;;;;;8.27;7.50;;;20.10;99.90;;;;;;4966280;28;21165;-89
2021/07/16 07:47:41;;;;;;;7.40;6.70;;;19.80;99.90;;;;;;4962551;28;20632;-89
2021/07/16 07:50:12;;;;;;;7.03;6.53;;;19.90;99.90;;;;;;4962893;28;20665;-89
2021/07/16 07:52:41;;;;;;;7.87;7.17;;;20.20;99.90;;;;;;4972235;28;20677;-89
2021/07/16 07:55:09;;;;;;;9.80;9.10;;;20.40;99.90;;;;;;4974227;28;20661;-89
2021/07/16 07:57:36;;;;;;;8.80;8.10;;;20.60;99.90;;;;;;4962072;28;20644;-88
2021/07/16 08:00:08;;;;;;;9.00;8.40;;;20.70;99.90;;;;;;4961928;28;20666;-88
2021/07/16 08:02:35;;;;;;;9.23;8.53;;;20.80;99.90;;;;;;4966321;28;20638;-88
2021/07/16 08:05:02;;;;;;;8.27;7.57;;;20.60;99.90;;;;;;4974825;28;20714;-89
2021/07/16 08:07:28;;;;;;;10.63;9.83;;;20.50;99.90;;;;;;4974153;28;20625;-89
2021/07/16 08:09:55;;;;;;;11.50;10.53;;;20.20;99.90;;;;;;4967788;28;20646;-88
2021/07/16 08:12:22;;;;;;;10.87;9.93;;;20.00;99.90;;;;;;4969882;28;20645;-88
2021/07/16 08:14:49;;;;;;;10.40;9.40;;;19.80;99.90;;;;;;4969756;28;20672;-88
2021/07/16 08:17:17;;;;;;;9.90;9.13;;;19.80;99.90;;;;;;4974382;28;20637;-88
2021/07/16 08:19:44;;;;;;;11.27;10.37;;;19.70;99.90;;;;;;4965655;28;20649;-87
2021/07/16 08:22:11;;;;;;;11.07;10.27;;;19.80;99.90;;;;;;4972331;28;20633;-88
2021/07/16 08:24:37;;;;;;;12.00;11.10;;;19.70;99.90;;;;;;4968448;28;20653;-88
2021/07/16 08:27:05;;;;;;;11.57;10.67;;;19.90;99.90;;;;;;4969669;28;21207;-88
2021/07/16 08:29:32;;;;;;;12.53;11.47;;;20.10;99.90;;;;;;4973399;28;20653;-88
2021/07/16 08:32:00;;;;;;;10.17;9.20;;;20.40;99.90;;;;;;4965585;28;20627;-88
2021/07/16 08:34:31;;;;;;;9.63;8.97;;;20.20;99.90;;;;;;4970418;28;21237;-88
2021/07/16 08:36:58;;;;;;;9.50;8.60;;;20.10;99.90;;;;;;4963192;28;20645;-88
2021/07/16 08:39:25;;;;;;;9.63;8.93;;;20.10;99.90;;;;;;4963219;28;20760;-88
2021/07/16 08:41:53;;;;;;;8.40;7.73;;;20.50;99.90;;;;;;4966906;28;20632;-88
2021/07/16 08:44:20;;;;;;;8.90;8.20;;;21.10;99.90;;;;;;4973424;28;21215;-88
2021/07/16 08:46:48;;;;;;;7.47;6.97;;;21.20;99.90;;;;;;4968347;28;20630;-88
2021/07/16 08:49:19;;;;;;;8.33;7.40;;;21.00;99.90;;;;;;4971630;28;20638;-88
2021/07/16 08:51:49;;;;;;;8.30;7.60;;;20.80;99.90;;;;;;4967836;28;20630;-88
2021/07/16 08:54:17;;;;;;;8.43;7.50;;;21.10;99.90;;;;;;4968398;28;20674;-88
2021/07/16 08:56:45;;;;;;;7.63;7.00;;;20.70;99.90;;;;;;4967753;28;21156;-88
2021/07/16 08:59:15;;;;;;;8.37;7.63;;;20.50;99.90;;;;;;4965299;28;20646;-87
2021/07/16 09:01:44;;;;;;;6.97;6.47;;;20.30;99.90;;;;;;4962334;28;20629;-87
2021/07/16 09:04:11;;;;;;;8.30;6.67;;;20.70;99.90;;;;;;4967285;28;21227;-88
2021/07/16 09:06:48;;;;;;;7.80;6.93;;;21.50;99.90;;;;;;4968535;28;20640;-87
2021/07/16 09:09:18;;;;;;;6.30;5.70;;;21.90;99.90;;;;;;4969762;28;20624;-87
2021/07/16 09:11:47;;;;;;;7.30;6.70;;;21.90;99.90;;;;;;4970586;28;21168;-88
2021/07/16 09:14:25;;;;;;;6.37;5.87;;;21.40;99.90;;;;;;4964276;28;20640;-88
2021/07/16 09:16:56;;;;;;;6.50;6.00;;;21.20;99.90;;;;;;4968286;28;20626;-88
2021/07/16 09:19:37;;;;;;;6.80;6.20;;;21.10;99.90;;;;;;4966181;28;20629;-89
2021/07/16 09:22:10;;;;;;;7.67;7.07;;;20.80;99.90;;;;;;4973400;28;20731;-89
2021/07/16 09:24:38;;;;;;;7.17;6.57;;;20.70;99.90;;;;;;4968329;28;20663;-89
2021/07/16 09:27:30;;;;;;;7.57;7.03;;;20.90;99.90;;;;;;4964506;28;20638;-89
2021/07/16 09:30:10;;;;;;;6.40;6.00;;;21.10;99.90;;;;;;4982182;28;20649;-88
2021/07/16 09:32:40;;;;;;;5.57;5.27;;;21.30;99.90;;;;;;4986459;28;20628;-89
2021/07/16 09:35:07;;;;;;;8.50;7.80;;;21.50;99.90;;;;;;4983976;28;20747;-88
2021/07/16 09:37:48;;;;;;;5.80;5.40;;;21.70;99.90;;;;;;4987439;28;20718;-88
2021/07/16 09:40:21;;;;;;;6.10;5.50;;;22.30;99.90;;;;;;4979379;28;20716;-89
2021/07/16 09:42:49;;;;;;;6.00;5.60;;;22.20;99.90;;;;;;4969763;28;20649;-86
2021/07/16 09:45:16;;;;;;;6.83;4.73;;;21.90;99.90;;;;;;4972205;28;20630;-88
2021/07/16 09:47:43;;;;;;;5.83;5.40;;;21.50;99.90;;;;;;4965682;28;21172;-87
2021/07/16 09:50:12;;;;;;;5.87;5.43;;;21.60;99.90;;;;;;4969752;28;20667;-87
2021/07/16 09:52:40;;;;;;;5.47;4.97;;;22.00;99.90;;;;;;4967314;28;21463;-87
2021/07/16 09:55:09;;;;;;;4.40;4.00;;;22.10;99.90;;;;;;4966817;28;20677;-88
2021/07/16 09:57:41;;;;;;;5.40;5.00;;;22.40;99.90;;;;;;4963150;28;20654;-88
2021/07/16 10:00:14;;;;;;;4.33;4.03;;;22.50;99.90;;;;;;4966657;28;20661;-88
2021/07/16 10:02:45;;;;;;;4.37;3.97;;;22.90;99.90;;;;;;4964887;28;20669;-88
2021/07/16 10:05:12;;;;;;;3.50;3.30;;;22.60;99.90;;;;;;4961465;28;20634;-88
2021/07/16 10:07:42;;;;;;;4.10;3.80;;;22.20;99.90;;;;;;4966022;28;21283;-88
2021/07/16 10:10:11;;;;;;;4.30;3.87;;;22.50;99.90;;;;;;4961329;28;20671;-89
2021/07/16 10:12:41;;;;;;;4.80;4.50;;;23.10;99.90;;;;;;4967340;28;20625;-89
2021/07/16 10:15:11;;;;;;;5.23;4.83;;;23.50;99.90;;;;;;4970997;28;20671;-89
2021/07/16 10:17:39;;;;;;;5.70;5.30;;;23.00;99.90;;;;;;4964269;28;21168;-89
2021/07/16 10:20:10;;;;;;;5.43;4.30;;;22.80;99.90;;;;;;4974173;28;20675;-89
2021/07/16 10:22:38;;;;;;;4.37;4.17;;;23.30;99.90;;;;;;4973418;28;20645;-89
2021/07/16 10:25:09;;;;;;;3.60;3.40;;;23.70;99.90;;;;;;4967458;28;20644;-89
2021/07/16 10:27:38;;;;;;;4.40;4.00;;;23.80;99.90;;;;;;4978523;28;21211;-89
2021/07/16 10:30:10;;;;;;;3.40;3.03;;;23.60;99.90;;;;;;4977021;28;20653;-89
2021/07/16 10:32:45;;;;;;;3.63;3.33;;;24.00;99.90;;;;;;4970358;28;20625;-91
2021/07/16 10:35:18;;;;;;;3.20;3.00;;;24.30;99.90;;;;;;4973270;28;20641;-91
2021/07/16 10:37:45;;;;;;;2.60;2.40;;;24.40;99.90;;;;;;4962585;28;20626;-89
2021/07/16 10:40:36;;;;;;;2.37;2.17;;;24.70;99.90;;;;;;4969924;28;20664;-90
2021/07/16 10:43:04;;;;;;;2.50;2.30;;;25.00;99.90;;;;;;4972629;28;20637;-90
2021/07/16 10:45:36;;;;;;;3.30;3.00;;;25.30;99.90;;;;;;4970460;28;20623;-89
2021/07/16 10:48:12;;;;;;;3.50;3.30;;;25.60;99.90;;;;;;4967812;28;20640;-89
2021/07/16 10:50:40;;;;;;;3.20;3.00;;;25.50;99.90;;;;;;4968962;28;20660;-88
2021/07/16 10:53:14;;;;;;;2.37;2.07;;;24.90;99.90;;;;;;4970464;28;20633;-88
2021/07/16 10:56:08;;;;;;;2.37;2.13;;;24.80;99.90;;;;;;4968294;28;21186;-88
2021/07/16 10:58:49;;;;;;;2.50;2.23;;;25.00;99.90;;;;;;4972855;28;20604;-89
2021/07/16 11:01:34;;;;;;;2.03;1.93;;;25.60;99.90;;;;;;4966335;28;20668;-89
2021/07/16 11:04:04;;;;;;;3.30;3.00;;;26.20;99.90;;;;;;4967809;28;20720;-89
2021/07/16 11:06:51;;;;;;;2.60;2.40;;;26.60;99.90;;;;;;4965505;28;20684;-91
2021/07/16 11:09:36;;;;;;;4.80;3.00;;;25.70;99.90;;;;;;4968921;28;20649;-89
2021/07/16 11:12:26;;;;;;;2.53;2.33;;;24.90;99.90;;;;;;4967251;28;20720;-90
2021/07/16 11:14:54;;;;;;;2.97;2.67;;;24.70;99.90;;;;;;4964550;28;20634;-91
2021/07/16 11:17:37;;;;;;;2.93;2.37;;;24.40;99.90;;;;;;4967734;28;20643;-90
2021/07/16 11:20:31;;;;;;;3.60;2.33;;;24.30;99.90;;;;;;4970191;28;20724;-89
2021/07/16 11:23:09;;;;;;;3.17;2.43;;;24.00;99.90;;;;;;4973077;28;20629;-88
2021/07/16 11:25:43;;;;;;;2.47;2.27;;;24.10;99.90;;;;;;4969816;28;20684;-89
2021/07/16 11:28:12;;;;;;;2.83;2.73;;;24.30;99.90;;;;;;4971616;28;20748;-92
2021/07/16 11:30:40;;;;;;;2.80;2.60;;;24.70;99.90;;;;;;4976373;28;20659;-90
2021/07/16 11:33:07;;;;;;;3.03;2.40;;;24.50;99.90;;;;;;4971722;28;21446;-89
2021/07/16 11:35:36;;;;;;;2.27;2.17;;;24.40;99.90;;;;;;4977198;28;21292;-92
2021/07/16 11:38:07;;;;;;;4.57;2.07;;;24.40;99.90;;;;;;4977884;28;21084;-92
2021/07/16 11:40:36;;;;;;;2.63;2.17;;;24.40;99.90;;;;;;4975664;28;20688;-89
2021/07/16 11:43:05;;;;;;;2.40;1.77;;;25.10;99.90;;;;;;4979277;28;20708;-90
2021/07/16 11:45:36;;;;;;;2.00;1.90;;;25.70;99.90;;;;;;4973384;28;20968;-90
2021/07/16 11:48:14;;;;;;;1.87;1.77;;;26.20;99.90;;;;;;4968977;28;20653;-89
2021/07/16 11:50:46;;;;;;;1.60;1.50;;;25.50;99.90;;;;;;4966386;28;21400;-91
2021/07/16 11:53:13;;;;;;;3.53;1.70;;;25.20;99.90;;;;;;4972192;28;21188;-90
2021/07/16 11:55:44;;;;;;;2.80;1.63;;;25.00;99.90;;;;;;4971891;28;20664;-90
2021/07/16 11:58:12;;;;;;;1.40;1.30;;;24.80;99.90;;;;;;4975360;28;20646;-90
2021/07/16 12:00:43;;;;;;;1.60;1.50;;;24.80;99.90;;;;;;4978808;28;20644;-92
2021/07/16 12:03:20;;;;;;;3.50;2.13;;;25.10;99.90;;;;;;4986199;28;20717;-95
2021/07/16 12:05:58;;;;;;;2.10;1.67;;;25.20;99.90;;;;;;4981288;28;20645;-93
2021/07/16 12:08:28;;;;;;;1.50;1.40;;;24.60;99.90;;;;;;4985937;28;20629;-94
2021/07/16 12:11:08;;;;;;;1.67;1.57;;;24.90;99.90;;;;;;5018613;23;20655;-95
2021/07/16 12:13:43;;;;;;;2.23;2.03;;;24.80;99.90;;;;;;5025227;28;20702;-95
2021/07/16 12:16:16;;;;;;;2.10;2.00;;;24.30;99.90;;;;;;5016684;28;21226;-93
2021/07/16 12:18:49;;;;;;;3.07;2.50;;;24.50;99.90;;;;;;5026419;28;20638;-94
2021/07/16 12:21:21;;;;;;;3.33;2.30;;;24.70;99.90;;;;;;5018113;28;20673;-95
2021/07/16 12:23:52;;;;;;;3.30;2.23;;;24.00;99.90;;;;;;5019914;28;20653;-95
2021/07/16 12:26:26;;;;;;;2.30;2.07;;;23.70;99.90;;;;;;5014712;28;21043;-96
2021/07/16 12:29:07;;;;;;;2.93;2.73;;;23.40;99.90;;;;;;5017178;28;20648;-96
2021/07/16 12:31:36;;;;;;;2.33;2.23;;;23.00;99.90;;;;;;5015320;28;20659;-95
2021/07/16 12:34:25;;;;;;;2.57;2.30;;;23.10;99.90;;;;;;5025508;28;20666;-95
2021/07/16 12:37:16;;;;;;;2.23;2.13;;;23.00;99.90;;;;;;5018818;28;20894;-95
2021/07/16 12:39:46;;;;;;;2.93;2.73;;;22.90;99.90;;;;;;5020934;28;20627;-94
2021/07/16 12:42:17;;;;;;;2.70;2.50;;;22.40;99.90;;;;;;5017565;28;20673;-94
2021/07/16 12:45:10;;;;;;;5.93;2.50;;;22.40;99.90;;;;;;5018056;28;21218;-96
2021/07/16 12:47:56;;;;;;;3.00;2.07;;;22.40;99.90;;;;;;5011556;28;20651;-96
2021/07/16 12:50:26;;;;;;;2.80;2.60;;;22.50;99.90;;;;;;5023232;28;20998;-96
2021/07/16 12:53:00;;;;;;;2.43;2.23;;;22.60;99.90;;;;;;5023673;28;20649;-95